createdAt,value
2018-09-21T00:00:13.981Z,11.17
2018-09-21T00:05:09.641Z,12.83
2018-09-21T00:10:05.307Z,8.73
2018-09-21T00:15:01.449Z,8.40
2018-09-21T00:19:56.835Z,8.80
2018-09-21T00:24:53.095Z,7.67
2018-09-21T00:29:48.086Z,8.47
2018-09-21T00:34:43.710Z,8.50
2018-09-21T00:39:38.763Z,8.60
2018-09-21T00:44:33.670Z,8.10
2018-09-21T00:49:28.869Z,7.30
2018-09-21T00:54:23.719Z,8.33
2018-09-21T00:59:18.093Z,8.50
2018-09-21T01:04:13.132Z,10.37
2018-09-21T01:09:11.043Z,8.13
2018-09-21T01:14:06.861Z,9.50
2018-09-21T01:19:02.257Z,8.67
2018-09-21T01:23:57.986Z,8.70
2018-09-21T01:28:52.747Z,8.93
2018-09-21T01:33:49.411Z,8.97
2018-09-21T01:38:45.629Z,8.80
2018-09-21T01:43:41.189Z,12.43
2018-09-21T01:48:36.385Z,10.20
2018-09-21T01:53:32.551Z,10.40
2018-09-21T01:58:27.071Z,8.70
2018-09-21T02:03:24.005Z,8.73
2018-09-21T02:08:19.771Z,9.40
2018-09-21T02:13:14.455Z,9.63
2018-09-21T02:18:09.098Z,9.80
2018-09-21T02:23:27.319Z,13.33
2018-09-21T02:28:46.458Z,9.33
2018-09-21T02:33:42.460Z,9.50
2018-09-21T02:38:38.155Z,9.57
2018-09-21T02:43:40.692Z,11.57
2018-09-21T02:48:34.986Z,10.83
2018-09-21T02:53:31.046Z,9.93
2018-09-21T02:58:25.239Z,8.83
2018-09-21T03:03:24.082Z,9.37
2018-09-21T03:08:18.604Z,10.63
2018-09-21T03:13:14.360Z,10.30
2018-09-21T03:18:09.630Z,9.27
2018-09-21T03:23:04.326Z,8.97
2018-09-21T03:27:58.558Z,9.27
2018-09-21T03:32:53.374Z,11.50
2018-09-21T03:37:49.271Z,8.33
2018-09-21T03:42:44.497Z,9.33
2018-09-21T03:47:39.776Z,10.47
2018-09-21T03:52:35.998Z,10.23
2018-09-21T03:57:30.318Z,10.07
2018-09-21T04:02:25.235Z,11.37
2018-09-21T04:07:19.534Z,10.63
2018-09-21T04:12:15.789Z,9.63
2018-09-21T04:17:10.179Z,12.03
2018-09-21T04:22:07.166Z,10.80
2018-09-21T04:27:02.169Z,12.17
2018-09-21T04:31:56.604Z,12.80
2018-09-21T04:36:51.796Z,13.07
2018-09-21T04:41:47.006Z,11.87
2018-09-21T04:46:41.275Z,12.67
2018-09-21T04:51:36.163Z,11.40
2018-09-21T04:56:32.576Z,26.23
2018-09-21T05:01:28.324Z,11.47
2018-09-21T05:06:23.713Z,15.13
2018-09-21T05:11:21.063Z,9.60
2018-09-21T05:16:20.371Z,11.30
2018-09-21T05:21:15.799Z,9.47
2018-09-21T05:26:11.649Z,14.60
2018-09-21T05:31:07.020Z,13.70
2018-09-21T05:36:04.192Z,8.60
2018-09-21T05:41:02.350Z,13.60
2018-09-21T05:45:59.607Z,9.03
2018-09-21T05:50:54.736Z,11.03
2018-09-21T05:55:52.302Z,12.63
2018-09-21T06:00:47.903Z,12.97
2018-09-21T06:05:45.037Z,8.97
2018-09-21T06:10:41.228Z,13.03
2018-09-21T06:15:37.184Z,9.57
2018-09-21T06:20:33.485Z,16.23
2018-09-21T06:25:28.820Z,10.97
2018-09-21T06:30:23.863Z,9.43
2018-09-21T06:35:18.609Z,10.57
2018-09-21T06:40:13.873Z,10.67
2018-09-21T06:45:09.550Z,6.97
2018-09-21T06:50:05.469Z,10.37
2018-09-21T06:55:00.543Z,10.47
2018-09-21T06:59:56.442Z,10.10
2018-09-21T07:04:50.931Z,6.63
2018-09-21T07:09:47.316Z,9.57
2018-09-21T07:14:43.964Z,5.83
2018-09-21T07:19:41.416Z,7.47
2018-09-21T07:24:37.985Z,7.27
2018-09-21T07:29:34.143Z,7.23
2018-09-21T07:34:31.381Z,5.93
2018-09-21T07:39:28.690Z,8.33
2018-09-21T07:44:23.976Z,8.23
2018-09-21T07:49:20.995Z,11.67
2018-09-21T07:54:16.277Z,9.83
2018-09-21T07:59:11.693Z,11.10
2018-09-21T08:04:08.776Z,8.10
2018-09-21T08:09:03.382Z,10.33
2018-09-21T08:14:00.060Z,4.80
2018-09-21T08:18:55.424Z,8.80
2018-09-21T08:23:54.220Z,7.73
2018-09-21T08:28:55.790Z,8.63
2018-09-21T08:33:50.133Z,8.87
2018-09-21T08:38:44.959Z,5.97
2018-09-21T08:43:41.287Z,7.13
2018-09-21T08:48:39.094Z,6.17
2018-09-21T08:53:34.384Z,8.07
2018-09-21T08:58:29.852Z,6.60
2018-09-21T09:03:24.946Z,5.30
2018-09-21T09:08:22.299Z,5.47
2018-09-21T09:13:17.645Z,10.10
2018-09-21T09:18:13.098Z,7.60
2018-09-21T09:23:08.470Z,7.90
2018-09-21T09:28:04.552Z,6.97
2018-09-21T09:33:00.266Z,3.93
2018-09-21T09:37:54.660Z,10.50
2018-09-21T09:43:01.113Z,4.33
2018-09-21T09:47:57.446Z,7.97
2018-09-21T09:52:56.288Z,5.90
2018-09-21T09:57:50.687Z,4.83
2018-09-21T10:02:46.464Z,10.60
2018-09-21T10:07:41.641Z,4.07
2018-09-21T10:12:38.323Z,5.60
2018-09-21T10:17:33.464Z,6.40
2018-09-21T10:22:29.797Z,3.83
2018-09-21T10:27:24.595Z,5.67
2018-09-21T10:32:19.612Z,3.60
2018-09-21T10:37:13.891Z,10.87
2018-09-21T10:42:08.286Z,4.30
2018-09-21T10:47:06.432Z,5.97
2018-09-21T10:52:10.458Z,3.37
2018-09-21T10:57:14.263Z,8.13
2018-09-21T11:02:09.893Z,4.43
2018-09-21T11:07:06.572Z,8.73
2018-09-21T11:12:02.660Z,5.93
2018-09-21T11:16:57.044Z,5.03
2018-09-21T11:21:51.794Z,4.97
2018-09-21T11:26:49.749Z,7.60
2018-09-21T11:31:44.221Z,5.93
2018-09-21T11:36:39.489Z,4.93
2018-09-21T11:41:35.428Z,4.33
2018-09-21T11:46:30.568Z,5.30
2018-09-21T11:51:26.099Z,5.40
2018-09-21T11:56:22.876Z,4.10
2018-09-21T12:01:19.354Z,5.10
2018-09-21T12:06:14.592Z,9.00
2018-09-21T12:11:11.377Z,10.07
2018-09-21T12:16:06.360Z,5.97
2018-09-21T12:21:01.609Z,7.63
2018-09-21T12:25:57.183Z,11.53
2018-09-21T12:30:51.587Z,6.30
2018-09-21T12:35:45.887Z,8.40
2018-09-21T12:40:41.096Z,8.80
2018-09-21T12:45:35.981Z,12.47
2018-09-21T12:50:31.544Z,4.23
2018-09-21T12:55:25.770Z,4.20
2018-09-21T13:00:23.119Z,6.73
2018-09-21T13:05:17.606Z,9.43
2018-09-21T13:10:13.476Z,11.03
2018-09-21T13:15:08.356Z,6.57
2018-09-21T13:20:04.346Z,12.27
2018-09-21T13:24:58.680Z,12.60
2018-09-21T13:29:53.334Z,9.53
2018-09-21T13:34:47.918Z,8.77
2018-09-21T13:39:50.090Z,9.97
2018-09-21T13:44:44.513Z,10.17
2018-09-21T13:49:39.988Z,5.73
2018-09-21T13:54:34.569Z,5.30
2018-09-21T13:59:29.017Z,7.70
2018-09-21T14:04:25.229Z,11.60
2018-09-21T14:09:19.677Z,9.03
2018-09-21T14:14:14.426Z,11.80
2018-09-21T14:19:09.241Z,7.80
2018-09-21T14:24:04.491Z,9.57
2018-09-21T14:28:59.697Z,4.93
2018-09-21T14:33:54.393Z,6.33
2018-09-21T14:38:48.826Z,6.57
2018-09-21T14:43:44.098Z,10.87
2018-09-21T14:48:38.417Z,6.27
2018-09-21T14:53:33.899Z,5.03
2018-09-21T14:58:30.108Z,6.47
2018-09-21T15:03:25.515Z,5.97
2018-09-21T15:08:20.058Z,6.23
2018-09-21T15:13:14.814Z,6.40
2018-09-21T15:18:09.206Z,6.77
2018-09-21T15:23:04.666Z,10.20
2018-09-21T15:28:01.555Z,11.63
2018-09-21T15:32:57.697Z,11.57
2018-09-21T15:37:52.034Z,4.67
2018-09-21T15:42:46.830Z,56.47
2018-09-21T15:47:41.363Z,13.97
2018-09-21T15:52:37.195Z,4.90
2018-09-21T15:57:31.547Z,21.87
2018-09-21T16:02:27.302Z,9.93
2018-09-21T16:07:22.780Z,8.73
2018-09-21T16:12:17.592Z,9.23
2018-09-21T16:17:13.219Z,5.67
2018-09-21T16:22:07.954Z,3.93
2018-09-21T16:27:05.768Z,5.33
2018-09-21T16:32:00.023Z,12.80
2018-09-21T16:36:54.239Z,114.20
2018-09-21T16:41:49.196Z,178.87
2018-09-21T16:46:43.694Z,173.70
2018-09-21T16:51:39.693Z,180.13
2018-09-21T16:56:34.337Z,117.37
2018-09-21T17:01:29.150Z,118.03
2018-09-21T17:06:23.315Z,47.50
2018-09-21T17:11:17.855Z,27.63
2018-09-21T17:16:12.915Z,18.07
2018-09-21T17:21:07.707Z,13.10
2018-09-21T17:26:03.324Z,13.87
2018-09-21T17:30:58.874Z,16.30
2018-09-21T17:35:54.029Z,8.97
2018-09-21T17:40:49.464Z,6.30
2018-09-21T17:45:46.108Z,5.23
2018-09-21T17:50:42.192Z,14.33
2018-09-21T17:55:36.883Z,54.70
2018-09-21T18:00:33.231Z,3.30
2018-09-21T18:05:28.185Z,5.03
2018-09-21T18:10:22.972Z,13.77
2018-09-21T18:15:17.382Z,3.70
2018-09-21T18:20:12.426Z,11.17
2018-09-21T18:25:07.935Z,2.17
2018-09-21T18:30:03.300Z,4.80
2018-09-21T18:34:58.048Z,8.03
2018-09-21T18:39:52.714Z,61.70
2018-09-21T18:44:47.516Z,4.43
2018-09-21T18:49:43.468Z,5.23
2018-09-21T18:54:38.027Z,9.73
2018-09-21T19:06:43.960Z,3.70
2018-09-21T19:11:38.767Z,6.33
2018-09-21T19:16:33.725Z,21.33
2018-09-21T19:21:28.372Z,4.17
2018-09-21T19:26:23.539Z,4.60
2018-09-21T19:31:18.532Z,3.27
2018-09-21T19:36:14.497Z,13.47
2018-09-21T19:41:09.054Z,89.10
2018-09-21T19:52:05.738Z,95.90
2018-09-21T19:57:00.494Z,5.50
2018-09-21T20:01:54.674Z,4.43
2018-09-21T20:06:49.098Z,6.30
2018-09-21T20:11:44.193Z,7.27
2018-09-21T20:16:38.585Z,5.93
2018-09-21T20:21:33.525Z,6.70
2018-09-21T20:26:27.955Z,9.87
2018-09-21T20:31:27.586Z,5.47
2018-09-21T20:36:22.409Z,6.73
2018-09-21T20:41:17.375Z,4.17
2018-09-21T20:46:11.699Z,2.83
2018-09-21T20:51:08.137Z,3.07
2018-09-21T20:56:03.337Z,5.93
2018-09-21T21:00:58.424Z,5.50
2018-09-21T21:05:52.682Z,3.70
2018-09-21T21:10:48.644Z,3.97
2018-09-21T21:15:42.865Z,6.47
2018-09-21T21:20:39.511Z,7.40
2018-09-21T21:25:33.935Z,5.27
2018-09-21T21:30:28.861Z,6.57
2018-09-21T21:35:24.650Z,4.27
2018-09-21T21:40:19.356Z,3.30
2018-09-21T21:45:13.883Z,5.97
2018-09-21T21:50:09.392Z,4.53
2018-09-21T21:55:05.200Z,6.10
2018-09-21T21:59:59.690Z,6.23
2018-09-21T22:04:54.126Z,4.40
2018-09-21T22:09:48.426Z,6.47
2018-09-21T22:14:43.013Z,5.07
2018-09-21T22:19:37.308Z,7.20
2018-09-21T22:24:32.971Z,6.17
2018-09-21T22:29:28.799Z,4.57
2018-09-21T22:34:23.870Z,6.43
2018-09-21T22:39:18.585Z,6.30
2018-09-21T22:44:13.700Z,6.87
2018-09-21T22:49:12.543Z,6.83
2018-09-21T22:54:06.810Z,6.43
2018-09-21T22:59:03.332Z,7.67
2018-09-21T23:03:58.042Z,4.10
2018-09-21T23:08:54.479Z,7.33
2018-09-21T23:13:49.228Z,4.50
2018-09-21T23:18:44.475Z,2.63
2018-09-21T23:23:38.877Z,4.93
2018-09-21T23:28:34.248Z,4.10
2018-09-21T23:33:28.931Z,4.30
2018-09-21T23:38:23.432Z,5.97
2018-09-21T23:43:19.498Z,3.83
2018-09-21T23:48:14.082Z,4.27
2018-09-21T23:53:09.375Z,4.90
2018-09-21T23:58:05.729Z,4.13
